createdAt,value
2023-01-13T00:01:14.583Z,100430.03
2023-01-13T00:03:41.420Z,100426.91
2023-01-13T00:06:09.807Z,100415.00
2023-01-13T00:08:36.277Z,100405.63
2023-01-13T00:11:02.744Z,100409.53
2023-01-13T00:13:29.457Z,100414.88
2023-01-13T00:16:00.579Z,100415.03
2023-01-13T00:18:27.440Z,100403.28
2023-01-13T00:21:07.137Z,100412.97
2023-01-13T00:23:34.989Z,100405.50
2023-01-13T00:26:05.327Z,100414.22
2023-01-13T00:28:32.125Z,100417.78
2023-01-13T00:31:09.448Z,100423.22
2023-01-13T00:33:36.715Z,100436.34
2023-01-13T00:36:05.350Z,100427.88
2023-01-13T00:39:36.070Z,100435.66
2023-01-13T00:41:25.846Z,100432.13
2023-01-13T00:43:52.309Z,100421.75
2023-01-13T00:46:21.519Z,100423.53
2023-01-13T00:48:48.697Z,100422.69
2023-01-13T00:51:18.317Z,100403.06
2023-01-13T00:53:47.623Z,100415.25
2023-01-13T00:56:19.959Z,100406.75
2023-01-13T00:58:52.177Z,100395.31
2023-01-13T01:01:21.663Z,100383.25
2023-01-13T01:03:49.681Z,100377.41
2023-01-13T01:06:19.312Z,100387.81
2023-01-13T01:08:46.015Z,100385.16
2023-01-13T01:11:15.028Z,100376.47
2023-01-13T01:13:42.773Z,100389.44
2023-01-13T01:16:12.235Z,100386.84
2023-01-13T01:18:41.815Z,100382.63
2023-01-13T01:21:09.509Z,100379.22
2023-01-13T01:23:37.326Z,100376.63
2023-01-13T01:26:08.882Z,100373.19
2023-01-13T01:28:35.463Z,100369.69
2023-01-13T01:31:17.379Z,100369.69
2023-01-13T01:33:44.309Z,100360.28
2023-01-13T01:36:16.582Z,100375.84
2023-01-13T01:38:43.761Z,100375.84
2023-01-13T01:41:14.809Z,100385.31
2023-01-13T01:44:06.803Z,100399.84
2023-01-13T01:46:41.673Z,100405.00
2023-01-13T01:49:32.906Z,100403.16
2023-01-13T01:51:59.299Z,100397.91
2023-01-13T01:54:55.139Z,100410.94
2023-01-13T01:57:30.709Z,100409.09
2023-01-13T01:59:59.163Z,100412.63
2023-01-13T02:02:25.718Z,100406.66
2023-01-13T02:04:55.001Z,100396.28
2023-01-13T02:07:27.198Z,100387.75
2023-01-13T02:09:56.244Z,100384.53
2023-01-13T02:12:30.106Z,100385.63
2023-01-13T02:15:00.996Z,100393.25
2023-01-13T02:17:58.395Z,100387.28
2023-01-13T02:20:39.842Z,100390.03
2023-01-13T02:23:48.242Z,100383.25
2023-01-13T02:26:31.198Z,100386.59
2023-01-13T02:29:35.745Z,100377.06
2023-01-13T02:32:14.960Z,100375.50
2023-01-13T02:34:53.417Z,100372.91
2023-01-13T02:37:28.804Z,100363.44
2023-01-13T02:40:21.389Z,100365.19
2023-01-13T02:43:23.639Z,100353.97
2023-01-13T02:45:59.227Z,100351.38
2023-01-13T02:48:28.539Z,100343.63
2023-01-13T02:51:05.088Z,100346.06
2023-01-13T02:53:50.957Z,100348.66
2023-01-13T02:56:18.138Z,100346.06
2023-01-13T02:58:47.080Z,100348.66
2023-01-13T03:01:13.875Z,100343.63
2023-01-13T03:03:40.331Z,100340.19
2023-01-13T03:06:44.389Z,100357.41
2023-01-13T03:09:29.818Z,100343.31
2023-01-13T03:12:10.507Z,100357.16
2023-01-13T03:14:46.434Z,100332.13
2023-01-13T03:17:40.805Z,100334.03
2023-01-13T03:20:16.597Z,100339.22
2023-01-13T03:23:00.480Z,100337.59
2023-01-13T03:25:34.112Z,100342.09
2023-01-13T03:28:06.747Z,100334.31
2023-01-13T03:30:40.911Z,100329.28
2023-01-13T03:33:19.461Z,100339.13
2023-01-13T03:35:52.816Z,100337.28
2023-01-13T03:38:25.428Z,100339.88
2023-01-13T03:40:59.372Z,100356.09
2023-01-13T03:44:09.043Z,100355.13
2023-01-13T03:47:10.320Z,100366.00
2023-01-13T03:49:44.741Z,100351.25
2023-01-13T03:52:18.744Z,100341.63
2023-01-13T03:54:51.173Z,100332.13
2023-01-13T03:57:22.657Z,100341.56
2023-01-13T03:59:52.846Z,100337.31
2023-01-13T04:02:32.641Z,100339.03
2023-01-13T04:05:03.056Z,100339.13
2023-01-13T04:08:06.576Z,100333.69
2023-01-13T04:10:40.851Z,100339.94
2023-01-13T04:13:12.325Z,100316.09
2023-01-13T04:15:44.194Z,100339.56
2023-01-13T04:18:18.139Z,100338.81
2023-01-13T04:20:47.236Z,100338.88
2023-01-13T04:23:13.994Z,100347.56
2023-01-13T04:25:41.591Z,100349.34
2023-01-13T04:28:08.300Z,100368.53
2023-01-13T04:30:34.822Z,100347.97
2023-01-13T04:33:01.318Z,100353.16
2023-01-13T04:35:27.787Z,100350.31
2023-01-13T04:37:54.184Z,100354.66
2023-01-13T04:40:20.686Z,100355.50
2023-01-13T04:42:47.156Z,100358.19
2023-01-13T04:45:14.323Z,100353.06
2023-01-13T04:47:41.934Z,100347.97
2023-01-13T04:50:10.197Z,100343.81
2023-01-13T04:52:36.654Z,100331.72
2023-01-13T04:55:03.143Z,100332.72
2023-01-13T04:57:29.862Z,100336.38
2023-01-13T04:59:56.446Z,100336.59
2023-01-13T05:02:22.874Z,100334.75
2023-01-13T05:04:49.478Z,100333.78
2023-01-13T05:07:16.643Z,100338.78
2023-01-13T05:09:43.099Z,100328.38
2023-01-13T05:12:28.533Z,100318.06
2023-01-13T05:15:14.024Z,100334.53
2023-01-13T05:17:41.420Z,100331.88
2023-01-13T05:20:08.800Z,100337.13
2023-01-13T05:22:53.601Z,100323.03
2023-01-13T05:25:23.263Z,100317.91
2023-01-13T05:27:50.659Z,100313.59
2023-01-13T05:30:17.404Z,100302.38
2023-01-13T05:32:43.880Z,100319.47
2023-01-13T05:35:10.535Z,100311.84
2023-01-13T05:37:36.980Z,100321.28
2023-01-13T05:40:22.633Z,100314.34
2023-01-13T05:43:18.473Z,100318.44
2023-01-13T05:45:45.357Z,100329.88
2023-01-13T05:48:11.886Z,100332.56
2023-01-13T05:50:38.291Z,100338.63
2023-01-13T05:53:05.139Z,100333.47
2023-01-13T05:55:32.080Z,100333.59
2023-01-13T05:57:58.551Z,100338.78
2023-01-13T06:00:25.062Z,100328.75
2023-01-13T06:02:52.262Z,100332.47
2023-01-13T06:05:18.691Z,100327.28
2023-01-13T06:07:45.087Z,100323.88
2023-01-13T06:10:11.831Z,100326.66
2023-01-13T06:12:38.648Z,100336.28
2023-01-13T06:15:05.877Z,100329.34
2023-01-13T06:17:32.291Z,100325.97
2023-01-13T06:19:58.757Z,100345.56
2023-01-13T06:22:35.669Z,100336.13
2023-01-13T06:25:03.345Z,100351.66
2023-01-13T06:27:30.390Z,100337.66
2023-01-13T06:29:57.261Z,100335.84
2023-01-13T06:32:32.489Z,100336.53
2023-01-13T06:35:05.463Z,100335.44
2023-01-13T06:37:34.528Z,100348.13
2023-01-13T06:40:03.841Z,100341.31
2023-01-13T06:42:52.827Z,100349.00
2023-01-13T06:45:19.469Z,100364.34
2023-01-13T06:47:45.922Z,100358.19
2023-01-13T06:50:12.886Z,100362.34
2023-01-13T06:52:39.344Z,100353.59
2023-01-13T06:55:06.188Z,100357.94
2023-01-13T06:57:32.679Z,100360.53
2023-01-13T06:59:59.125Z,100357.94
2023-01-13T07:02:26.065Z,100356.19
2023-01-13T07:04:52.591Z,100366.56
2023-01-13T07:07:19.010Z,100369.22
2023-01-13T07:09:45.427Z,100376.16
2023-01-13T07:12:12.181Z,100374.47
2023-01-13T07:14:57.255Z,100369.28
2023-01-13T07:17:25.360Z,100376.16
2023-01-13T07:19:53.169Z,100376.16
2023-01-13T07:22:19.786Z,100389.88
2023-01-13T07:24:46.264Z,100378.44
2023-01-13T07:27:12.688Z,100387.00
2023-01-13T07:29:39.711Z,100385.13
2023-01-13T07:32:07.016Z,100383.47
2023-01-13T07:34:33.659Z,100385.84
2023-01-13T07:37:00.623Z,100384.94
2023-01-13T07:39:27.119Z,100384.94
2023-01-13T07:42:12.259Z,100378.97
2023-01-13T07:44:38.686Z,100383.19
2023-01-13T07:47:06.034Z,100389.03
2023-01-13T07:49:33.193Z,100389.97
2023-01-13T07:51:59.690Z,100383.72
2023-01-13T07:54:39.658Z,100393.00
2023-01-13T07:57:07.435Z,100396.44
2023-01-13T07:59:33.842Z,100386.00
2023-01-13T08:02:00.565Z,100408.50
2023-01-13T08:04:27.124Z,100401.31
2023-01-13T08:06:53.552Z,100409.78
2023-01-13T08:09:19.970Z,100395.84
2023-01-13T08:12:06.369Z,100397.59
2023-01-13T08:14:32.770Z,100393.41
2023-01-13T08:16:59.205Z,100395.97
2023-01-13T08:19:25.688Z,100398.44
2023-01-13T08:21:52.102Z,100392.31
2023-01-13T08:24:18.503Z,100411.38
2023-01-13T08:26:44.929Z,100403.47
2023-01-13T08:29:14.588Z,100406.84
2023-01-13T08:31:41.231Z,100412.00
2023-01-13T08:34:07.661Z,100430.84
2023-01-13T08:36:34.067Z,100431.69
2023-01-13T08:39:00.526Z,100432.44
2023-01-13T08:41:45.565Z,100430.16
2023-01-13T08:44:11.950Z,100421.75
2023-01-13T08:46:38.398Z,100440.16
2023-01-13T08:49:05.414Z,100453.25
2023-01-13T08:51:31.851Z,100441.28
2023-01-13T08:53:58.288Z,100444.03
2023-01-13T08:56:24.720Z,100458.88
2023-01-13T08:58:52.522Z,100459.81
2023-01-13T09:01:22.811Z,100465.97
2023-01-13T09:03:49.451Z,100461.84
2023-01-13T09:06:15.867Z,100471.59
2023-01-13T09:08:43.436Z,100477.59
2023-01-13T09:11:37.358Z,100484.50
2023-01-13T09:14:03.984Z,100480.19
2023-01-13T09:16:30.404Z,100480.19
2023-01-13T09:18:56.793Z,100482.88
2023-01-13T09:21:23.309Z,100488.06
2023-01-13T09:23:49.721Z,100505.28
2023-01-13T09:26:20.995Z,100494.09
2023-01-13T09:28:47.848Z,100501.94
2023-01-13T09:31:14.519Z,100491.63
2023-01-13T09:33:59.729Z,100487.44
2023-01-13T09:36:26.143Z,100490.00
2023-01-13T09:38:52.594Z,100490.94
2023-01-13T09:41:43.438Z,100503.91
2023-01-13T09:44:16.660Z,100498.72
2023-01-13T09:46:58.220Z,100520.13
2023-01-13T09:49:56.684Z,100514.81
2023-01-13T09:52:26.704Z,100518.25
2023-01-13T09:55:01.583Z,100517.25
2023-01-13T09:57:32.446Z,100513.59
2023-01-13T09:59:59.090Z,100508.38
2023-01-13T10:02:42.261Z,100510.81
2023-01-13T10:05:14.364Z,100515.91
2023-01-13T10:07:48.321Z,100517.44
2023-01-13T10:10:34.060Z,100511.97
2023-01-13T10:13:20.471Z,100527.44
2023-01-13T10:16:19.304Z,100525.75
2023-01-13T10:19:11.245Z,100540.56
2023-01-13T10:21:40.587Z,100554.50
2023-01-13T10:24:17.153Z,100544.97
2023-01-13T10:27:10.011Z,100540.63
2023-01-13T10:29:36.947Z,100551.78
2023-01-13T10:32:04.022Z,100557.81
2023-01-13T10:34:30.620Z,100558.56
2023-01-13T10:37:03.234Z,100563.53
2023-01-13T10:39:40.705Z,100575.56
2023-01-13T10:42:13.950Z,100578.94
2023-01-13T10:44:51.462Z,100577.97
2023-01-13T10:47:36.215Z,100574.50
2023-01-13T10:50:09.678Z,100568.50
2023-01-13T10:52:42.826Z,100582.28
2023-01-13T10:55:38.776Z,100593.53
2023-01-13T10:58:13.450Z,100591.84
2023-01-13T11:00:40.223Z,100591.00
2023-01-13T11:03:16.753Z,100589.94
2023-01-13T11:05:54.488Z,100597.50
2023-01-13T11:08:24.783Z,100599.97
2023-01-13T11:10:57.850Z,100588.59
2023-01-13T11:13:35.845Z,100611.72
2023-01-13T11:16:12.709Z,100602.94
2023-01-13T11:19:12.194Z,100596.75
2023-01-13T11:21:50.383Z,100607.09
2023-01-13T11:24:21.068Z,100600.97
2023-01-13T11:26:55.489Z,100612.19
2023-01-13T11:29:36.888Z,100607.00
2023-01-13T11:32:14.602Z,100605.03
2023-01-13T11:34:45.034Z,100613.50
2023-01-13T11:37:28.220Z,100601.81
2023-01-13T11:39:59.437Z,100604.22
2023-01-13T11:42:32.036Z,100616.03
2023-01-13T11:45:02.184Z,100621.84
2023-01-13T11:47:29.283Z,100614.84
2023-01-13T11:49:56.210Z,100613.81
2023-01-13T11:52:37.547Z,100617.91
2023-01-13T11:55:07.062Z,100635.94
2023-01-13T11:57:52.317Z,100629.75
2023-01-13T12:00:56.164Z,100639.22
2023-01-13T12:03:48.879Z,100629.63
2023-01-13T12:06:34.028Z,100640.84
2023-01-13T12:09:37.068Z,100644.19
2023-01-13T12:12:22.751Z,100639.91
2023-01-13T12:15:02.878Z,100642.50
2023-01-13T12:17:55.225Z,100658.19
2023-01-13T12:20:43.033Z,100654.66
2023-01-13T12:23:35.394Z,100664.22
2023-01-13T12:26:08.283Z,100661.59
2023-01-13T12:28:56.826Z,100661.47
2023-01-13T12:31:24.927Z,100670.00
2023-01-13T12:34:15.347Z,100676.81
2023-01-13T12:37:09.231Z,100672.53
2023-01-13T12:39:54.310Z,100680.22
2023-01-13T12:42:50.407Z,100685.38
2023-01-13T12:45:20.483Z,100694.75
2023-01-13T12:47:47.165Z,100694.59
2023-01-13T12:50:22.727Z,100674.44
2023-01-13T12:53:00.074Z,100680.38
2023-01-13T12:55:28.565Z,100688.03
2023-01-13T12:57:56.314Z,100680.91
2023-01-13T13:00:23.289Z,100683.44
2023-01-13T13:03:23.258Z,100706.75
2023-01-13T13:06:28.165Z,100696.19
2023-01-13T13:09:06.769Z,100704.78
2023-01-13T13:12:03.585Z,100708.25
2023-01-13T13:14:50.268Z,100716.25
2023-01-13T13:17:19.762Z,100736.16
2023-01-13T13:19:48.784Z,100734.34
2023-01-13T13:22:20.601Z,100725.63
2023-01-13T13:24:56.180Z,100732.50
2023-01-13T13:27:28.209Z,100724.56
2023-01-13T13:30:27.978Z,100756.34
2023-01-13T13:33:00.311Z,100768.34
2023-01-13T13:35:52.353Z,100747.41
2023-01-13T13:39:12.569Z,100755.91
2023-01-13T13:42:03.598Z,100768.94
2023-01-13T13:44:51.636Z,100756.88
2023-01-13T13:47:19.354Z,100774.25
2023-01-13T13:49:54.429Z,100785.47
2023-01-13T13:52:25.775Z,100773.47
2023-01-13T13:54:57.218Z,100778.75
2023-01-13T13:57:34.446Z,100787.47
2023-01-13T14:00:06.398Z,100790.91
2023-01-13T14:02:37.217Z,100789.19
2023-01-13T14:05:30.747Z,100822.09
2023-01-13T14:08:01.671Z,100810.00
2023-01-13T14:10:32.554Z,100825.72
2023-01-13T14:13:00.908Z,100822.28
2023-01-13T14:15:31.433Z,100820.53
2023-01-13T14:18:00.647Z,100851.78
2023-01-13T14:20:28.702Z,100835.38
2023-01-13T14:23:01.283Z,100845.81
2023-01-13T14:25:34.451Z,100841.63
2023-01-13T14:28:14.008Z,100866.75
2023-01-13T14:30:41.868Z,100852.88
2023-01-13T14:33:17.007Z,100860.72
2023-01-13T14:36:05.384Z,100870.41
2023-01-13T14:38:31.921Z,100874.84
2023-01-13T14:41:15.823Z,100871.34
2023-01-13T14:43:44.318Z,100874.91
2023-01-13T14:46:11.619Z,100878.44
2023-01-13T14:48:39.466Z,100890.59
2023-01-13T14:51:10.949Z,100897.59
2023-01-13T14:53:46.685Z,100896.91
2023-01-13T14:56:47.360Z,100903.06
2023-01-13T14:59:32.905Z,100913.47
2023-01-13T15:02:00.129Z,100905.81
2023-01-13T15:04:32.306Z,100924.91
2023-01-13T15:07:00.096Z,100925.75
2023-01-13T15:09:33.106Z,100930.19
2023-01-13T15:12:00.430Z,100939.72
2023-01-13T15:14:32.269Z,100938.03
2023-01-13T15:16:58.669Z,100964.94
2023-01-13T15:19:25.127Z,100942.31
2023-01-13T15:21:51.777Z,100961.41
2023-01-13T15:24:18.203Z,100960.47
2023-01-13T15:26:44.623Z,100963.03
2023-01-13T15:29:15.201Z,100964.00
2023-01-13T15:31:42.268Z,100969.97
2023-01-13T15:34:08.679Z,100977.81
2023-01-13T15:36:37.224Z,100985.69
2023-01-13T15:39:04.083Z,100994.25
2023-01-13T15:41:49.281Z,100991.94
2023-01-13T15:44:35.288Z,101015.44
2023-01-13T15:47:04.970Z,101011.94
2023-01-13T15:49:37.668Z,101001.75
2023-01-13T15:52:10.084Z,101019.94
2023-01-13T15:54:36.608Z,101020.97
2023-01-13T15:57:03.151Z,101019.28
2023-01-13T15:59:29.648Z,101020.25
2023-01-13T16:01:56.123Z,101027.19
2023-01-13T16:04:22.715Z,101044.41
2023-01-13T16:06:49.297Z,101041.72
2023-01-13T16:09:16.858Z,101042.72
2023-01-13T16:11:43.397Z,101052.28
2023-01-13T16:14:09.991Z,101048.75
2023-01-13T16:16:37.348Z,101059.91
2023-01-13T16:19:03.976Z,101063.50
2023-01-13T16:21:30.465Z,101070.28
2023-01-13T16:23:56.868Z,101069.41
2023-01-13T16:26:26.229Z,101078.09
2023-01-13T16:28:55.010Z,101084.06
2023-01-13T16:31:26.067Z,101091.94
2023-01-13T16:33:53.119Z,101081.69
2023-01-13T16:36:21.525Z,101080.97
2023-01-13T16:38:50.332Z,101093.22
2023-01-13T16:41:17.177Z,101102.00
2023-01-13T16:43:43.974Z,101083.81
2023-01-13T16:46:21.487Z,101094.25
2023-01-13T16:48:48.760Z,101107.19
2023-01-13T16:51:15.401Z,101123.69
2023-01-13T16:53:41.977Z,101129.19
2023-01-13T16:56:20.824Z,101147.94
2023-01-13T16:58:47.460Z,101134.69
2023-01-13T17:01:24.737Z,101135.16
2023-01-13T17:03:52.118Z,101125.19
2023-01-13T17:06:22.707Z,101134.97
2023-01-13T17:08:49.323Z,101131.78
2023-01-13T17:11:15.896Z,101138.16
2023-01-13T17:13:42.369Z,101142.75
2023-01-13T17:16:22.674Z,101152.34
2023-01-13T17:18:49.275Z,101150.84
2023-01-13T17:21:16.731Z,101156.13
2023-01-13T17:23:43.315Z,101165.78
2023-01-13T17:26:27.443Z,101177.09
2023-01-13T17:28:54.016Z,101165.78
2023-01-13T17:31:20.494Z,101158.94
2023-01-13T17:33:47.039Z,101177.19
2023-01-13T17:36:13.503Z,101177.25
2023-01-13T17:38:39.930Z,101177.28
2023-01-13T17:41:06.395Z,101186.09
2023-01-13T17:43:32.934Z,101186.25
2023-01-13T17:45:59.709Z,101189.78
2023-01-13T17:48:26.700Z,101208.06
2023-01-13T17:50:53.714Z,101188.41
2023-01-13T17:53:20.920Z,101197.13
2023-01-13T17:55:55.155Z,101191.97
2023-01-13T17:58:22.431Z,101199.00
2023-01-13T18:00:49.172Z,101203.44
2023-01-13T18:03:17.625Z,101213.88
2023-01-13T18:05:45.190Z,101213.06
2023-01-13T18:08:11.685Z,101212.31
2023-01-13T18:10:38.242Z,101211.41
2023-01-13T18:13:05.218Z,101214.06
2023-01-13T18:15:31.900Z,101220.06
2023-01-13T18:17:58.467Z,101217.47
2023-01-13T18:20:43.375Z,101220.94
2023-01-13T18:23:35.295Z,101218.50
2023-01-13T18:26:34.772Z,101228.09
2023-01-13T18:29:01.860Z,101224.72
2023-01-13T18:31:28.355Z,101215.34
2023-01-13T18:33:54.904Z,101227.56
2023-01-13T18:36:21.591Z,101240.50
2023-01-13T18:38:51.811Z,101243.03
2023-01-13T18:41:36.940Z,101245.69
2023-01-13T18:44:04.026Z,101258.53
2023-01-13T18:46:30.503Z,101253.19
2023-01-13T18:48:57.047Z,101252.19
2023-01-13T18:51:23.544Z,101243.41
2023-01-13T18:53:50.069Z,101251.00
2023-01-13T18:56:17.021Z,101260.22
2023-01-13T18:58:50.944Z,101253.19
2023-01-13T19:01:25.709Z,101251.22
2023-01-13T19:04:02.578Z,101261.44
2023-01-13T19:06:33.801Z,101271.75
2023-01-13T19:09:08.264Z,101272.53
2023-01-13T19:11:36.135Z,101279.47
2023-01-13T19:14:03.731Z,101281.16
2023-01-13T19:16:30.339Z,101293.34
2023-01-13T19:18:56.760Z,101294.34
2023-01-13T19:21:24.178Z,101303.91
2023-01-13T19:23:55.853Z,101295.28
2023-01-13T19:26:22.393Z,101292.78
2023-01-13T19:28:50.397Z,101293.53
2023-01-13T19:31:17.200Z,101297.88
2023-01-13T19:33:43.710Z,101299.56
2023-01-13T19:36:11.280Z,101303.03
2023-01-13T19:38:38.039Z,101306.56
2023-01-13T19:41:27.301Z,101306.66
2023-01-13T19:44:13.302Z,101313.59
2023-01-13T19:46:41.147Z,101329.09
2023-01-13T19:49:08.144Z,101327.31
2023-01-13T19:51:34.687Z,101330.63
2023-01-13T19:54:01.550Z,101330.63
2023-01-13T19:56:29.442Z,101332.31
2023-01-13T19:58:56.987Z,101329.63
2023-01-13T20:01:30.333Z,101343.16
2023-01-13T20:04:02.819Z,101341.47
2023-01-13T20:06:31.635Z,101352.72
2023-01-13T20:08:58.503Z,101344.84
2023-01-13T20:11:31.487Z,101348.28
2023-01-13T20:13:59.602Z,101357.69
2023-01-13T20:16:30.366Z,101348.13
2023-01-13T20:18:57.021Z,101353.31
2023-01-13T20:21:23.705Z,101353.47
2023-01-13T20:23:51.726Z,101360.44
2023-01-13T20:26:19.392Z,101363.78
2023-01-13T20:28:47.295Z,101361.16
2023-01-13T20:31:14.774Z,101359.50
2023-01-13T20:33:42.330Z,101363.88
2023-01-13T20:36:16.704Z,101363.97
2023-01-13T20:38:43.190Z,101362.38
2023-01-13T20:41:28.456Z,101382.28
2023-01-13T20:43:55.122Z,101388.13
2023-01-13T20:46:22.737Z,101383.66
2023-01-13T20:48:49.607Z,101397.53
2023-01-13T20:51:16.300Z,101400.22
2023-01-13T20:53:42.958Z,101412.44
2023-01-13T20:56:09.804Z,101397.84
2023-01-13T20:58:39.269Z,101400.56
2023-01-13T21:01:06.173Z,101415.38
2023-01-13T21:03:33.186Z,101406.06
2023-01-13T21:05:59.767Z,101422.56
2023-01-13T21:08:26.368Z,101424.28
2023-01-13T21:10:59.613Z,101426.84
2023-01-13T21:13:44.807Z,101435.50
2023-01-13T21:16:11.496Z,101432.63
2023-01-13T21:18:56.631Z,101434.53
2023-01-13T21:21:23.169Z,101439.78
2023-01-13T21:23:52.991Z,101447.50
2023-01-13T21:26:22.670Z,101445.00
2023-01-13T21:28:50.241Z,101449.31
2023-01-13T21:31:17.778Z,101453.59
2023-01-13T21:33:47.565Z,101448.41
2023-01-13T21:36:15.536Z,101445.91
2023-01-13T21:38:42.264Z,101451.91
2023-01-13T21:41:09.261Z,101452.75
2023-01-13T21:43:55.812Z,101460.44
2023-01-13T21:46:42.216Z,101461.31
2023-01-13T21:49:08.785Z,101458.75
2023-01-13T21:51:35.676Z,101461.31
2023-01-13T21:54:02.115Z,101459.38
2023-01-13T21:56:28.515Z,101466.31
2023-01-13T21:58:57.805Z,101469.72
2023-01-13T22:01:24.397Z,101470.53
2023-01-13T22:04:09.555Z,101473.94
2023-01-13T22:06:36.057Z,101474.78
2023-01-13T22:09:02.864Z,101472.31
2023-01-13T22:11:29.366Z,101481.84
2023-01-13T22:14:11.317Z,101494.78
2023-01-13T22:16:41.765Z,101500.69
2023-01-13T22:19:09.860Z,101498.88
2023-01-13T22:21:36.750Z,101500.47
2023-01-13T22:24:03.396Z,101499.47
2023-01-13T22:26:29.906Z,101508.06
2023-01-13T22:28:56.662Z,101501.22
2023-01-13T22:31:23.842Z,101514.19
2023-01-13T22:33:55.369Z,101516.00
2023-01-13T22:36:24.157Z,101504.88
2023-01-13T22:38:56.264Z,101510.88
2023-01-13T22:41:23.312Z,101501.38
2023-01-13T22:43:49.763Z,101513.50
2023-01-13T22:46:17.124Z,101506.63
2023-01-13T22:48:44.556Z,101512.59
2023-01-13T22:51:13.418Z,101513.47
2023-01-13T22:53:40.899Z,101509.94
2023-01-13T22:56:09.858Z,101511.69
2023-01-13T22:58:36.337Z,101511.75
2023-01-13T23:01:10.217Z,101523.88
2023-01-13T23:03:36.983Z,101522.22
2023-01-13T23:06:03.581Z,101523.03
2023-01-13T23:08:30.054Z,101524.72
2023-01-13T23:11:10.897Z,101533.53
2023-01-13T23:13:40.247Z,101529.28
2023-01-13T23:16:15.681Z,101530.19
2023-01-13T23:18:42.723Z,101535.28
2023-01-13T23:21:14.719Z,101530.91
2023-01-13T23:23:41.979Z,101526.56
2023-01-13T23:26:09.197Z,101529.06
2023-01-13T23:28:36.860Z,101514.25
2023-01-13T23:31:07.956Z,101507.16
2023-01-13T23:33:37.682Z,101503.63
2023-01-13T23:36:06.768Z,101499.34
2023-01-13T23:38:33.539Z,101504.47
2023-01-13T23:41:00.439Z,101496.78
2023-01-13T23:43:27.222Z,101498.59
2023-01-13T23:46:02.275Z,101493.34
2023-01-13T23:48:28.926Z,101490.72
2023-01-13T23:51:04.552Z,101504.53
2023-01-13T23:53:33.486Z,101503.69
2023-01-13T23:56:01.680Z,101502.81
2023-01-13T23:58:29.271Z,101502.72
